Hauptseite
METAR-TAF:

METAR-TAF

Flughäfen :

Andersen Air Force Base

Andersen, Guam, Vereinigte Staaten

Breite: 13-35N, Länge: 144-56E, Höhe: 187 m

Beobachtung

Neuester Wetterbericht von vor 29 Minuten, um 22:25 UTC
Wind 9 kt aus Nord/Nordost
Temperatur 27°C
Luftfeuchtigkeit 84%
Luftdruck 1014 hPa
Sichtweite: 12.9 km
Durchbrochene Bewölkung in der Höhe von 1200 ft

METAR: PGUA 152225Z AUTO 02009KT 8SM BKN012 27/24 A2993 RMK AO2 BKN V SCT SLP126 $

Zeit: 08:54 (22:54 UTC)

Prognose

Neuester Wetterbericht von vor 4 Stunden und 54 Minuten, um 18:00 UTC
Gültige Prognose vom 15 um 18 UTC bis 16 um 24 UTC
Wind 10 kt aus Nordost
Sichtweite 10 km oder mehr
Aufgelockert bewölkt in der Höhe von 1500 ft
Zeitweise
vom 16 um 18 UTC bis 16 um 24 UTC
Wind 10 kt aus Nordost, Böen bis zu 18 kt

TAF: PGUA 151800Z 1518/1624 04010KT 9999 SCT015 QNH2982INS TEMPO 1618/1624 05010G18KT TX29/1602Z TN24/1520Z

Wetterbeobachtungen und Prognosen von mehr als 4000 Flughäfen (METAR und TAF Bericht).

Die verfügbaren Stationen werden durch gelbe und rote Markierungen auf der Karte dargestellt.

Führen Sie die Maus auf sie, um den Namen der Station zu sehen.

Darauf klicken, um die Beobachtung von Wetterbeobachtungen und Prognosen zu sehen.

Um die Karte zu ändern : klicken Sie auf den grünen Tasten mit einem schwarzen Kreuz Zum Vergrößern, auf den grünen Button mit einem Gedankenstrich zu verkleinern, oder auf die grünen Pfeile für benachbarte Karten.


METAR-TAF: